UPS1070 KSDF-KEWR
Flight info
| Callsign | UPS1070 |
|---|---|
| Flight time | N/A |
| Altitude | 35000 |
| Route | EEVAA1 SHIPR SITTR Q34 GVE PHLBO4 |
| Aircraft | MD11/H-SDE1E2E3FGHIJ2J3J4J5M1RWXY/LB1D1 |
Departure
| Time | 2026-05-08 02:47 |
|---|---|
| Airport | Louisville Muhammad Ali International Airport (KSDF) |
Arrival
| Time | N/A |
|---|---|
| Airport | Newark Liberty International Airport (KEWR) |
| Time | Latitude | Longitude | Altitude | Speed | Heading |
|---|---|---|---|---|---|
| 2026-05-08 02:26 | 38.17148 | -85.72997 | 511 ft | 0 kts | 21° |
| 2026-05-08 02:40 | 38.17146 | -85.72998 | 511 ft | 2 kts | 21° |
| 2026-05-08 02:40 | 38.17132 | -85.73005 | 511 ft | 2 kts | 21° |
| 2026-05-08 02:40 | 38.17118 | -85.73013 | 511 ft | 2 kts | 36° |
| 2026-05-08 02:40 | 38.17108 | -85.73026 | 511 ft | 2 kts | 59° |
| 2026-05-08 02:41 | 38.17102 | -85.73044 | 511 ft | 2 kts | 80° |
| 2026-05-08 02:41 | 38.17102 | -85.73063 | 511 ft | 2 kts | 101° |
| 2026-05-08 02:41 | 38.17104 | -85.73072 | 511 ft | 1 kts | 112° |
| 2026-05-08 02:41 | 38.17105 | -85.73075 | 511 ft | 0 kts | 111° |
| 2026-05-08 02:43 | 38.17104 | -85.73072 | 511 ft | 1 kts | 111° |
| 2026-05-08 02:44 | 38.17089 | -85.73023 | 511 ft | 9 kts | 110° |
| 2026-05-08 02:44 | 38.17056 | -85.72905 | 511 ft | 18 kts | 109° |
| 2026-05-08 02:44 | 38.17003 | -85.72723 | 511 ft | 23 kts | 113° |
| 2026-05-08 02:44 | 38.17002 | -85.72722 | 511 ft | 23 kts | 113° |
| 2026-05-08 02:45 | 38.16912 | -85.72656 | 511 ft | 15 kts | 178° |
| 2026-05-08 02:45 | 38.16806 | -85.72636 | 511 ft | 15 kts | 166° |
| 2026-05-08 02:45 | 38.16694 | -85.72601 | 511 ft | 18 kts | 165° |
| 2026-05-08 02:45 | 38.16568 | -85.72557 | 511 ft | 18 kts | 164° |
| 2026-05-08 02:46 | 38.16489 | -85.72523 | 511 ft | 8 kts | 155° |
| 2026-05-08 02:46 | 38.16450 | -85.72475 | 511 ft | 9 kts | 99° |
| 2026-05-08 02:46 | 38.16492 | -85.72379 | 511 ft | 13 kts | 10° |
| 2026-05-08 02:46 | 38.16632 | -85.72418 | 511 ft | 46 kts | 344° |
| 2026-05-08 02:47 | 38.17215 | -85.72618 | 512 ft | 124 kts | 344° |
| 2026-05-08 02:47 | 38.18265 | -85.72982 | 525 ft | 182 kts | 344° |
| 2026-05-08 02:47 | 38.18947 | -85.73213 | 733 ft | 190 kts | 344° |
| 2026-05-08 02:47 | 38.19681 | -85.73455 | 1166 ft | 186 kts | 344° |
| 2026-05-08 02:48 | 38.20911 | -85.73843 | 1957 ft | 182 kts | 344° |
| 2026-05-08 02:48 | 38.22169 | -85.74244 | 2415 ft | 200 kts | 343° |
| 2026-05-08 02:48 | 38.23617 | -85.74745 | 2655 ft | 229 kts | 345° |
| 2026-05-08 02:48 | 38.25260 | -85.74780 | 3187 ft | 248 kts | 14° |
| 2026-05-08 02:49 | 38.26822 | -85.73762 | 3976 ft | 261 kts | 37° |
| 2026-05-08 02:49 | 38.28075 | -85.72032 | 4837 ft | 273 kts | 54° |
| 2026-05-08 02:49 | 38.28936 | -85.69878 | 5766 ft | 280 kts | 69° |
| 2026-05-08 02:49 | 38.29301 | -85.67433 | 6700 ft | 289 kts | 86° |
| 2026-05-08 02:50 | 38.29037 | -85.64895 | 7621 ft | 296 kts | 107° |
| 2026-05-08 02:50 | 38.28101 | -85.62547 | 8518 ft | 302 kts | 127° |
| 2026-05-08 02:50 | 38.26603 | -85.60688 | 9424 ft | 306 kts | 143° |
| 2026-05-08 02:50 | 38.24879 | -85.59091 | 10334 ft | 310 kts | 144° |
| 2026-05-08 02:51 | 38.23118 | -85.57427 | 11014 ft | 324 kts | 143° |
| 2026-05-08 02:51 | 38.21253 | -85.55579 | 11217 ft | 354 kts | 142° |
| 2026-05-08 02:51 | 38.19245 | -85.53519 | 11377 ft | 385 kts | 141° |
| 2026-05-08 02:51 | 38.17101 | -85.51291 | 11707 ft | 407 kts | 141° |
| 2026-05-08 02:52 | 38.14871 | -85.48964 | 12344 ft | 420 kts | 142° |
| 2026-05-08 02:52 | 38.12583 | -85.46577 | 13092 ft | 430 kts | 142° |
| 2026-05-08 02:52 | 38.10255 | -85.44149 | 13861 ft | 437 kts | 143° |
| 2026-05-08 02:52 | 38.07883 | -85.41677 | 14678 ft | 445 kts | 144° |
| 2026-05-08 02:53 | 38.05470 | -85.39169 | 15440 ft | 452 kts | 144° |
| 2026-05-08 02:53 | 38.03019 | -85.36626 | 16262 ft | 458 kts | 144° |
| 2026-05-08 02:53 | 38.00521 | -85.34024 | 17045 ft | 463 kts | 145° |
| 2026-05-08 02:53 | 37.98064 | -85.31236 | 17622 ft | 476 kts | 137° |
| 2026-05-08 02:54 | 37.96053 | -85.27837 | 18314 ft | 487 kts | 123° |
| 2026-05-08 02:54 | 37.94637 | -85.23895 | 18930 ft | 497 kts | 109° |
| 2026-05-08 02:54 | 37.93819 | -85.19612 | 19587 ft | 502 kts | 100° |
| 2026-05-08 02:54 | 37.93203 | -85.15226 | 20177 ft | 508 kts | 100° |
| 2026-05-08 02:55 | 37.92550 | -85.10803 | 20723 ft | 515 kts | 101° |
| 2026-05-08 02:55 | 37.91800 | -85.01707 | 21811 ft | 525 kts | 85° |
| 2026-05-08 02:55 | 37.92146 | -84.97091 | 22381 ft | 528 kts | 80° |
| 2026-05-08 02:56 | 37.92629 | -84.92476 | 22901 ft | 534 kts | 79° |
| 2026-05-08 02:56 | 37.93096 | -84.87779 | 23416 ft | 540 kts | 80° |
| 2026-05-08 02:56 | 37.93531 | -84.83017 | 23938 ft | 546 kts | 81° |
| 2026-05-08 02:56 | 37.93957 | -84.78198 | 24426 ft | 553 kts | 81° |
| 2026-05-08 02:57 | 37.94376 | -84.73335 | 24927 ft | 559 kts | 81° |
| 2026-05-08 02:57 | 37.94800 | -84.68411 | 25445 ft | 564 kts | 81° |
| 2026-05-08 02:57 | 37.95234 | -84.63469 | 25969 ft | 568 kts | 80° |
| 2026-05-08 02:57 | 37.95674 | -84.58447 | 26521 ft | 572 kts | 81° |
| 2026-05-08 02:58 | 37.96098 | -84.53408 | 26965 ft | 578 kts | 82° |
| 2026-05-08 02:58 | 37.96369 | -84.48309 | 27445 ft | 584 kts | 85° |
| 2026-05-08 02:58 | 37.96451 | -84.43122 | 27911 ft | 589 kts | 89° |
| 2026-05-08 02:58 | 37.96288 | -84.37900 | 28366 ft | 594 kts | 92° |
| 2026-05-08 02:59 | 37.96027 | -84.32653 | 29035 ft | 594 kts | 93° |
| 2026-05-08 02:59 | 37.95739 | -84.27402 | 29626 ft | 595 kts | 93° |
| 2026-05-08 02:59 | 37.95459 | -84.22150 | 30213 ft | 594 kts | 93° |
| 2026-05-08 02:59 | 37.95194 | -84.16896 | 30634 ft | 596 kts | 93° |
| 2026-05-08 03:00 | 37.94931 | -84.11647 | 31084 ft | 598 kts | 93° |
| 2026-05-08 03:00 | 37.94666 | -84.06373 | 31460 ft | 600 kts | 94° |
| 2026-05-08 03:00 | 37.94402 | -84.01062 | 31805 ft | 603 kts | 94° |
| 2026-05-08 03:00 | 37.94149 | -83.95738 | 32210 ft | 604 kts | 93° |
| 2026-05-08 03:01 | 37.93901 | -83.90415 | 32553 ft | 607 kts | 93° |
| 2026-05-08 03:01 | 37.93644 | -83.85039 | 32914 ft | 608 kts | 93° |
| 2026-05-08 03:01 | 37.93395 | -83.79638 | 33216 ft | 611 kts | 94° |
| 2026-05-08 03:01 | 37.93134 | -83.74224 | 33553 ft | 612 kts | 94° |
| 2026-05-08 03:02 | 37.92884 | -83.68815 | 33852 ft | 615 kts | 94° |
| 2026-05-08 03:02 | 37.92634 | -83.63395 | 34317 ft | 613 kts | 94° |
| 2026-05-08 03:02 | 37.92388 | -83.58019 | 34765 ft | 612 kts | 94° |
| 2026-05-08 03:02 | 37.92145 | -83.52612 | 35088 ft | 613 kts | 93° |
| 2026-05-08 03:03 | 37.91907 | -83.47223 | 35050 ft | 612 kts | 93° |
| 2026-05-08 03:03 | 37.91444 | -83.36470 | 35073 ft | 612 kts | 94° |
| 2026-05-08 03:04 | 37.90904 | -83.25700 | 35090 ft | 613 kts | 95° |
| 2026-05-08 03:04 | 37.90220 | -83.14907 | 35095 ft | 614 kts | 96° |
| 2026-05-08 03:05 | 37.89569 | -83.04186 | 35089 ft | 613 kts | 95° |
| 2026-05-08 03:05 | 37.88955 | -82.93357 | 35078 ft | 614 kts | 95° |
| 2026-05-08 03:06 | 37.88346 | -82.82712 | 35079 ft | 615 kts | 95° |
| 2026-05-08 03:06 | 37.87754 | -82.72202 | 34884 ft | 615 kts | 94° |
| 2026-05-08 03:06 | 37.87455 | -82.66803 | 35082 ft | 615 kts | 95° |
| 2026-05-08 03:07 | 37.87159 | -82.61409 | 35072 ft | 616 kts | 95° |
| 2026-05-08 03:07 | 37.86565 | -82.50567 | 35054 ft | 617 kts | 94° |
| 2026-05-08 03:08 | 37.86003 | -82.39883 | 35051 ft | 617 kts | 94° |
| 2026-05-08 03:08 | 37.85449 | -82.29375 | 35050 ft | 616 kts | 94° |